createdAt,value
2016-06-06T08:40:12.574Z,65.17
2016-06-06T08:41:12.655Z,64.4
2016-06-06T08:42:12.611Z,64.59
2016-06-06T08:43:12.614Z,64.69
2016-06-06T08:44:13.335Z,64.5
2016-06-06T08:45:12.635Z,64.98
2016-06-06T08:46:12.637Z,65.27
2016-06-06T08:47:12.671Z,65.27
2016-06-06T08:48:12.674Z,64.98
2016-06-06T08:49:12.724Z,65.01
2016-06-06T08:50:12.226Z,64.98
2016-06-06T08:51:12.947Z,65.69
2016-06-06T08:52:12.794Z,65.2
2016-06-06T08:53:12.952Z,65.11
2016-06-06T08:54:12.768Z,64.82
2016-06-06T08:55:12.771Z,64.72
2016-06-06T08:56:12.773Z,64.92
2016-06-06T08:57:12.995Z,64.43
2016-06-06T08:58:12.997Z,65.2
2016-06-06T08:59:12.844Z,64.63
2016-06-06T09:00:12.862Z,65.24
2016-06-06T09:01:12.865Z,65.24
2016-06-06T09:02:12.884Z,65.24
2016-06-06T09:03:12.870Z,65.72
2016-06-06T09:04:12.889Z,66.97
2016-06-06T09:05:12.892Z,65.14
2016-06-06T09:06:12.925Z,65.34
2016-06-06T09:07:13.162Z,65.14
2016-06-06T09:08:12.946Z,65.34
2016-06-06T09:09:12.887Z,64.86
2016-06-06T09:10:12.983Z,64.76
2016-06-06T09:11:12.970Z,64.76
2016-06-06T09:12:12.989Z,64.66
2016-06-06T09:13:13.006Z,64.56
2016-06-06T09:14:13.572Z,64.59
2016-06-06T09:15:13.230Z,64.89
2016-06-06T09:16:13.046Z,63.53
2016-06-06T09:17:13.080Z,64.01
2016-06-06T09:18:13.099Z,63.82
2016-06-06T09:19:13.101Z,64.21
2016-06-06T09:20:13.104Z,63.92
2016-06-06T09:21:13.528Z,63.92
2016-06-06T09:22:13.155Z,64.21
2016-06-06T09:23:13.158Z,63.63
2016-06-06T09:24:13.193Z,63.92
2016-06-06T09:25:13.195Z,63.73
2016-06-06T09:26:13.213Z,64.34
2016-06-06T09:27:13.248Z,64.14
2016-06-06T09:28:13.235Z,63.73
2016-06-06T09:29:13.221Z,64.63
2016-06-06T09:30:13.240Z,64.92
2016-06-06T09:31:13.242Z,65.2
2016-06-06T09:32:13.261Z,64.34
2016-06-06T09:33:13.514Z,64.05
2016-06-06T09:34:13.501Z,64.24
2016-06-06T09:35:13.566Z,64.14
2016-06-06T09:36:13.350Z,65.4
2016-06-06T09:37:27.431Z,64.82
2016-06-06T09:38:13.573Z,64.34
2016-06-06T09:39:13.217Z,63.31
2016-06-06T09:40:12.923Z,63.4
2016-06-06T09:41:13.395Z,62.82
2016-06-06T09:42:13.413Z,63.11
2016-06-06T09:43:13.822Z,63.31
2016-06-06T09:44:13.824Z,63.89
2016-06-06T09:45:13.453Z,64.47
2016-06-06T09:46:13.470Z,64.47
2016-06-06T09:47:13.505Z,63.02
2016-06-06T09:48:13.897Z,63.5
2016-06-06T09:49:13.541Z,62.92
2016-06-06T09:50:13.715Z,62.73
2016-06-06T09:51:13.765Z,62.82
2016-06-06T09:52:13.752Z,62.82
2016-06-06T09:53:13.411Z,63.24
2016-06-06T09:54:13.992Z,63.24
2016-06-06T09:55:13.666Z,63.05
2016-06-06T09:56:13.826Z,62.76
2016-06-06T09:57:13.688Z,62.37
2016-06-06T09:58:13.690Z,62.47
2016-06-06T09:59:14.130Z,62.5
2016-06-06T10:00:13.712Z,62.69
2016-06-06T10:01:13.730Z,61.92
2016-06-06T10:02:13.732Z,61.33
2016-06-06T10:03:13.735Z,62.11
2016-06-06T10:04:13.815Z,62.3
2016-06-06T10:05:13.975Z,62.69
2016-06-06T10:06:13.774Z,63.18
2016-06-06T10:07:13.793Z,62.69
2016-06-06T10:08:13.811Z,62.01
2016-06-06T10:09:14.001Z,61.33
2016-06-06T10:10:13.847Z,58.17
2016-06-06T10:11:13.835Z,58.24
2016-06-06T10:12:14.087Z,58.44
2016-06-06T10:13:13.933Z,58.72
2016-06-06T10:14:14.093Z,58.04
2016-06-06T10:15:13.939Z,58.14
2016-06-06T10:16:14.145Z,56.3
2016-06-06T10:17:13.991Z,56.79
2016-06-06T10:18:14.181Z,56.98
2016-06-06T10:19:14.200Z,58.24
2016-06-06T10:20:13.984Z,58.34
2016-06-06T10:21:14.002Z,56.04
2016-06-06T10:22:14.239Z,53.91
2016-06-06T10:23:14.055Z,53.11
2016-06-06T10:24:14.041Z,52.95
2016-06-06T10:25:14.060Z,55.07
2016-06-06T10:26:14.094Z,53.23
2016-06-06T10:27:14.080Z,55.46
2016-06-06T10:28:14.098Z,55.66
2016-06-06T10:29:14.149Z,55.98
2016-06-06T10:30:14.151Z,56.16
2016-06-06T10:31:14.154Z,55.88
2016-06-06T10:32:14.172Z,53.85
2016-06-06T10:33:14.175Z,52.1
2016-06-06T10:34:13.990Z,52.87
2016-06-06T10:35:28.306Z,54.94
2016-06-06T10:36:14.448Z,54.06
2016-06-06T10:37:14.248Z,52.32
2016-06-06T10:38:14.250Z,51.16
2016-06-06T10:39:14.473Z,51.84
2016-06-06T10:40:14.287Z,53
2016-06-06T10:41:14.509Z,53.49
2016-06-06T10:42:14.324Z,53.09
2016-06-06T10:43:14.186Z,50.87
2016-06-06T10:44:15.048Z,52.78
2016-06-06T10:45:28.473Z,52
2016-06-06T10:46:14.397Z,52.87
2016-06-06T10:47:14.634Z,52.97
2016-06-06T10:48:14.481Z,53.26
2016-06-06T10:49:14.452Z,52.32
2016-06-06T10:50:14.471Z,53
2016-06-06T10:51:14.536Z,52.12
2016-06-06T10:52:14.523Z,51.37
2016-06-06T10:53:14.525Z,48.08
2016-06-06T10:55:15.031Z,49.05
2016-06-06T10:56:14.612Z,49.54
2016-06-06T10:57:14.568Z,50.62
2016-06-06T10:58:14.804Z,49.17
2016-06-06T10:59:14.604Z,47.13
2016-06-06T11:00:14.841Z,45.97
2016-06-06T11:01:14.626Z,46.45
2016-06-06T11:02:14.659Z,47.13
2016-06-06T11:03:14.912Z,48
2016-06-06T11:05:14.715Z,46.86
2016-06-06T11:06:15.061Z,46.77
2016-06-06T11:07:14.782Z,44.83
2016-06-06T11:08:15.065Z,45.21
2016-06-06T11:09:14.772Z,43.26
2016-06-06T11:10:15.212Z,44.9
2016-06-06T11:11:14.793Z,45.29
2016-06-06T11:12:14.826Z,44.88
2016-06-06T11:13:14.939Z,45.95
2016-06-06T11:14:29.536Z,47.02
2016-06-06T11:15:15.538Z,46.62
2016-06-06T11:16:14.947Z,47.6
2016-06-06T11:17:15.105Z,46.33
2016-06-06T11:18:14.765Z,45.56
2016-06-06T11:19:14.767Z,46.62
2016-06-06T11:20:15.145Z,46.33
2016-06-06T11:21:14.961Z,44.71
2016-06-06T11:22:15.182Z,43.84
2016-06-06T11:24:15.000Z,44.03
2016-06-06T11:25:29.111Z,43.06
2016-06-06T11:26:15.083Z,42.5
2016-06-06T11:27:15.274Z,43.47
2016-06-06T11:28:15.088Z,41.63
2016-06-06T11:29:15.497Z,40.56
2016-06-06T11:30:14.954Z,41.92
2016-06-06T11:31:15.127Z,41.82
2016-06-06T11:32:15.349Z,42.21
2016-06-06T11:33:15.149Z,41.92
2016-06-06T11:34:15.026Z,41.63
2016-06-06T11:35:15.217Z,40.92
2016-06-06T11:36:16.157Z,41.8
2016-06-06T11:37:15.238Z,41.51
2016-06-06T11:38:15.240Z,41.22
2016-06-06T11:39:15.259Z,38.7
2016-06-06T11:40:15.917Z,40.91
2016-06-06T11:41:15.295Z,41.58
2016-06-06T11:42:15.298Z,41.88
2016-06-06T11:43:16.004Z,42.07
2016-06-06T11:44:15.397Z,42.94
2016-06-06T11:45:16.259Z,44.4
2016-06-06T11:46:15.372Z,44.4
2016-06-06T11:47:15.420Z,44.4
2016-06-06T11:48:15.611Z,43.91
2016-06-06T11:49:15.426Z,43.62
2016-06-06T11:50:15.633Z,42.75
2016-06-06T11:51:15.447Z,42.75
2016-06-06T11:52:15.466Z,42.36
2016-06-06T11:53:15.672Z,40.42
2016-06-06T11:55:15.536Z,40.83
2016-06-06T11:56:15.524Z,40.34
2016-06-06T11:57:15.557Z,40.23
2016-06-06T11:58:15.591Z,40.73
2016-06-06T11:59:15.718Z,40.83
2016-06-06T12:00:16.113Z,39.67
2016-06-06T12:01:15.599Z,39.37
2016-06-06T12:02:15.617Z,37.73
2016-06-06T12:03:15.839Z,36.85
2016-06-06T12:04:15.655Z,38.21
2016-06-06T12:05:15.673Z,37.15
2016-06-06T12:06:15.721Z,37.05
2016-06-06T12:07:15.741Z,37.73
2016-06-06T12:08:15.759Z,39.08
2016-06-06T12:09:15.776Z,37.73
2016-06-06T12:10:15.765Z,37.82
2016-06-06T12:11:15.782Z,37.15
2016-06-06T12:12:15.785Z,37.43
2016-06-06T12:13:15.851Z,37.53
2016-06-06T12:14:15.822Z,38.4
2016-06-06T12:15:15.825Z,37.34
2016-06-06T12:16:15.859Z,37.43
2016-06-06T12:17:15.876Z,37.94
2016-06-06T12:18:15.879Z,38.42
2016-06-06T12:19:16.117Z,37.07
2016-06-06T12:20:15.947Z,34.35
2016-06-06T12:21:16.137Z,33.38
2016-06-06T12:22:15.953Z,34.33
2016-06-06T12:23:15.971Z,36
2016-06-06T12:24:15.974Z,35.41
2016-06-06T12:25:15.991Z,35.51
2016-06-06T12:26:16.229Z,33.18
2016-06-06T12:27:16.060Z,33.47
2016-06-06T12:28:16.093Z,33.57
2016-06-06T12:29:16.080Z,34.83
2016-06-06T12:30:17.177Z,36.87
2016-06-06T12:31:16.102Z,35.03
2016-06-06T12:32:16.746Z,33.09
2016-06-06T12:33:16.123Z,34.74
2016-06-06T12:34:16.140Z,31.92
2016-06-06T12:35:16.160Z,31.63
2016-06-06T12:36:16.177Z,32.12
2016-06-06T12:37:16.196Z,33.28
2016-06-06T12:38:16.198Z,32.99
2016-06-06T12:39:16.295Z,33.18
2016-06-06T12:40:16.251Z,33.28
2016-06-06T12:41:16.254Z,32.21
2016-06-06T12:42:16.272Z,32.02
2016-06-06T12:43:16.526Z,30.48
2016-06-06T12:44:16.168Z,30.47
2016-06-06T12:45:16.342Z,32.12
2016-06-06T12:46:16.548Z,30.95
2016-06-06T12:47:16.348Z,31.15
2016-06-06T12:48:16.414Z,30.47
2016-06-06T12:49:16.384Z,30.76
2016-06-06T12:50:16.387Z,31.16
2016-06-06T12:51:16.437Z,30.97
2016-06-06T12:52:16.470Z,31.92
2016-06-06T12:53:16.505Z,30
2016-06-06T12:54:16.461Z,33.01
2016-06-06T12:55:16.948Z,31.94
2016-06-06T12:57:16.733Z,32.04
2016-06-06T12:58:16.518Z,33.49
2016-06-06T12:59:16.083Z,30.19
2016-06-06T13:00:16.571Z,30.09
2016-06-06T13:01:16.792Z,31.16
2016-06-06T13:02:16.591Z,31.94
2016-06-06T13:03:16.625Z,30.77
2016-06-06T13:04:16.627Z,31.35
2016-06-06T13:05:16.850Z,30.58
2016-06-06T13:06:17.087Z,27.86
2016-06-06T13:07:16.682Z,29.32
2016-06-06T13:08:30.999Z,30.68
2016-06-06T13:09:16.720Z,30.29
2016-06-06T13:10:16.723Z,29.72
2016-06-06T13:11:16.740Z,31.27
2016-06-06T13:12:16.759Z,31.08
2016-06-06T13:13:16.871Z,30.4
2016-06-06T13:14:17.452Z,27.97
2016-06-06T13:15:16.814Z,29.91
2016-06-06T13:16:16.879Z,31.37
2016-06-06T13:17:16.975Z,31.66
2016-06-06T13:18:16.869Z,32.05
2016-06-06T13:19:16.403Z,29.91
2016-06-06T13:20:17.265Z,31.29
2016-06-06T13:21:16.923Z,27.78
2016-06-06T13:22:17.098Z,29.82
2016-06-06T13:23:17.117Z,28.65
2016-06-06T13:24:16.947Z,29.04
2016-06-06T13:25:16.966Z,28.96
2016-06-06T13:26:17.000Z,31.37
2016-06-06T13:27:17.408Z,28.85
2016-06-06T13:28:17.021Z,26.32
2016-06-06T13:29:17.149Z,27.87
2016-06-06T13:30:17.463Z,28.85
2016-06-06T13:31:17.075Z,27.97
2016-06-06T13:32:17.360Z,29.04
2016-06-06T13:33:17.096Z,27.78
2016-06-06T13:34:17.130Z,29.14
2016-06-06T13:35:17.149Z,28.65
2016-06-06T13:36:17.355Z,27.78
2016-06-06T13:37:17.185Z,27.78
2016-06-06T13:38:17.219Z,28.17
2016-06-06T13:39:17.222Z,27.97
2016-06-06T13:40:17.256Z,27.68
2016-06-06T13:41:31.321Z,28.05
2016-06-06T13:42:31.354Z,29.14
2016-06-06T13:43:17.280Z,28.75
2016-06-06T13:44:17.283Z,27.96
2016-06-06T13:45:18.301Z,28.55
2016-06-06T13:46:17.522Z,28.85
2016-06-06T13:47:17.338Z,29.33
2016-06-06T13:48:31.434Z,29.9
2016-06-06T13:49:17.405Z,28.17
2016-06-06T13:50:17.392Z,27.67
2016-06-06T13:51:17.411Z,28.07
2016-06-06T13:52:17.429Z,29.72
2016-06-06T13:53:17.650Z,27
2016-06-06T13:54:17.466Z,26.6
2016-06-06T13:55:17.687Z,26.89
2016-06-06T13:56:17.486Z,27.28
2016-06-06T13:57:17.505Z,27.76
2016-06-06T13:58:17.726Z,26.79
2016-06-06T13:59:17.807Z,28.15
2016-06-06T14:00:18.575Z,28.05
2016-06-06T14:01:17.610Z,29.12
2016-06-06T14:02:17.894Z,29.82
2016-06-06T14:03:17.615Z,29.8
2016-06-06T14:04:17.618Z,29.22
2016-06-06T14:05:17.636Z,29.51
2016-06-06T14:06:17.655Z,27.58
2016-06-06T14:07:17.657Z,27.48
2016-06-06T14:08:17.691Z,27.68
2016-06-06T14:09:17.881Z,28.17
2016-06-06T14:10:17.712Z,29.33
2016-06-06T14:11:17.980Z,29.33
2016-06-06T14:12:17.887Z,29.24
2016-06-06T14:13:17.811Z,29.14
2016-06-06T14:14:17.782Z,29.74
2016-06-06T14:15:18.210Z,28.07
2016-06-06T14:16:17.819Z,27.78
2016-06-06T14:17:17.838Z,29.33
2016-06-06T14:18:18.090Z,27.68
2016-06-06T14:19:17.905Z,28.17
2016-06-06T14:20:17.876Z,29.33
2016-06-06T14:21:18.129Z,28.65
2016-06-06T14:22:18.178Z,28.07
2016-06-06T14:23:17.947Z,28.94
2016-06-06T14:24:17.950Z,28.85
2016-06-06T14:25:17.984Z,28.17
2016-06-06T14:26:17.987Z,29.43
2016-06-06T14:27:17.989Z,27.97
2016-06-06T14:28:18.038Z,29.52
2016-06-06T14:29:18.026Z,29.93
2016-06-06T14:30:19.374Z,27.1
2016-06-06T14:31:18.077Z,26.22
2016-06-06T14:32:18.144Z,27.58
2016-06-06T14:33:18.114Z,25.64
2016-06-06T14:34:18.305Z,26.11
2016-06-06T14:35:18.151Z,25.73
2016-06-06T14:36:18.154Z,25.04
2016-06-06T14:37:18.172Z,25.53
2016-06-06T14:38:18.191Z,25.45
2016-06-06T14:39:18.193Z,25.53
2016-06-06T14:40:18.228Z,26.21
2016-06-06T14:41:18.230Z,26.6
2016-06-06T14:42:18.107Z,26.6
2016-06-06T14:43:18.282Z,27.18
2016-06-06T14:44:18.285Z,25.63
2016-06-06T14:45:18.429Z,26.89
2016-06-06T14:47:18.324Z,26.6
2016-06-06T14:48:18.342Z,25.82
2016-06-06T14:49:18.565Z,26.78
2016-06-06T14:50:18.582Z,24.85
2016-06-06T14:51:18.412Z,25.9
2016-06-06T14:52:18.415Z,24.95
2016-06-06T14:53:18.434Z,23.87
2016-06-06T14:54:18.452Z,25.03
2016-06-06T14:55:18.486Z,25.32
2016-06-06T14:56:18.473Z,24.27
2016-06-06T14:57:18.492Z,24.74
2016-06-06T14:58:18.494Z,25.32
2016-06-06T14:59:19.217Z,25.13
2016-06-06T15:00:18.891Z,24.74
2016-06-06T15:01:18.550Z,26.1
2016-06-06T15:02:18.771Z,25.71
2016-06-06T15:03:18.602Z,24.55
2016-06-06T15:04:18.448Z,23.96
2016-06-06T15:05:18.622Z,23.09
2016-06-06T15:07:18.660Z,25.03
2016-06-06T15:08:18.662Z,25.13
2016-06-06T15:10:18.699Z,26.68
2016-06-06T15:11:18.716Z,26.49
2016-06-06T15:12:18.923Z,26
2016-06-06T15:13:18.801Z,26.49
2016-06-06T15:14:33.087Z,26.39
2016-06-06T15:15:19.493Z,24.55
2016-06-06T15:16:32.873Z,25.71
2016-06-06T15:17:18.826Z,26.68
2016-06-06T15:18:18.845Z,24.55
2016-06-06T15:19:18.832Z,25.7
2016-06-06T15:20:18.882Z,25.03
2016-06-06T15:21:18.869Z,26.2
2016-06-06T15:22:18.887Z,26.1
2016-06-06T15:23:18.906Z,27.17
2016-06-06T15:24:19.362Z,26.68
2016-06-06T15:25:18.959Z,25.79
2016-06-06T15:26:33.041Z,25.6
2016-06-06T15:27:18.994Z,25.51
2016-06-06T15:28:19.216Z,24.54
2016-06-06T15:29:32.706Z,24.83
2016-06-06T15:30:19.018Z,24.44
2016-06-06T15:31:19.037Z,25.51
2016-06-06T15:32:18.586Z,25.79
2016-06-06T15:33:19.261Z,26.09
2016-06-06T15:34:18.935Z,26.28
2016-06-06T15:35:19.111Z,26.28
2016-06-06T15:36:19.113Z,27.25
2016-06-06T15:37:19.131Z,28.03
2016-06-06T15:38:19.149Z,27.54
2016-06-06T15:39:19.558Z,27.92
2016-06-06T15:40:19.186Z,28.02
2016-06-06T15:41:19.376Z,27.72
2016-06-06T15:42:19.207Z,28.02
2016-06-06T15:43:19.224Z,27.62
2016-06-06T15:44:19.227Z,28.02
2016-06-06T15:45:19.949Z,28.98
2016-06-06T15:46:19.483Z,30.05
2016-06-06T15:47:19.518Z,28.11
2016-06-06T15:48:19.301Z,28.59
2016-06-06T15:49:19.319Z,27.92
2016-06-06T15:50:19.526Z,28.69
2016-06-06T15:51:33.421Z,29.47
2016-06-06T15:52:19.577Z,28.89
2016-06-06T15:53:19.377Z,28.59
2016-06-06T15:54:19.395Z,28.69
2016-06-06T15:55:19.414Z,28.87
2016-06-06T15:56:19.432Z,28.49
2016-06-06T15:57:19.450Z,28.58
2016-06-06T15:58:19.453Z,28.58
2016-06-06T15:59:19.471Z,27.71
2016-06-06T16:00:33.570Z,29.64
2016-06-06T16:01:19.508Z,30.04
2016-06-06T16:02:19.542Z,29.46
2016-06-06T16:03:33.609Z,28.97
2016-06-06T16:04:19.563Z,29.44
2016-06-06T16:05:19.566Z,28.76
2016-06-06T16:06:19.803Z,28.96
2016-06-06T16:07:19.586Z,28.66
2016-06-06T16:08:19.808Z,29.15
2016-06-06T16:09:19.639Z,30.02
2016-06-06T16:10:19.642Z,30.31
2016-06-06T16:11:19.691Z,29.63
2016-06-06T16:12:19.663Z,30.11
2016-06-06T16:13:20.150Z,30.89
2016-06-06T16:15:19.718Z,31.18
2016-06-06T16:16:19.752Z,31.18
2016-06-06T16:17:19.957Z,30.69
2016-06-06T16:18:19.991Z,31.36
2016-06-06T16:20:19.982Z,33.1
2016-06-06T16:21:20.015Z,33.39
2016-06-06T16:22:19.830Z,32.91
2016-06-06T16:23:19.833Z,32.04
2016-06-06T16:24:19.851Z,32.04
2016-06-06T16:25:19.854Z,33.1
2016-06-06T16:26:19.435Z,32.42
2016-06-06T16:27:20.125Z,31.44
2016-06-06T16:28:19.909Z,31.63
2016-06-06T16:29:19.943Z,32.51
2016-06-06T16:30:19.945Z,32.41
2016-06-06T16:31:19.964Z,32.31
2016-06-06T16:32:34.047Z,33.28
2016-06-06T16:33:20.172Z,32.89
2016-06-06T16:34:20.003Z,32.31
2016-06-06T16:35:20.209Z,32.31
2016-06-06T16:36:20.025Z,32.21
2016-06-06T16:37:20.027Z,32.39
2016-06-06T16:38:20.045Z,32.39
2016-06-06T16:39:19.595Z,32.59
2016-06-06T16:40:34.600Z,32.97
2016-06-06T16:41:20.100Z,33.55
2016-06-06T16:42:20.103Z,34.71
2016-06-06T16:43:20.173Z,33.45
2016-06-06T16:44:20.134Z,33.36
2016-06-06T16:45:20.422Z,34.42
2016-06-06T16:46:20.414Z,34.23
2016-06-06T16:47:20.204Z,34.62
2016-06-06T16:48:20.427Z,34.81
2016-06-06T16:49:20.244Z,35.49
2016-06-06T16:50:20.247Z,35.39
2016-06-06T16:51:20.283Z,35.2
2016-06-06T16:52:20.287Z,35.58
2016-06-06T16:53:20.291Z,34.23
2016-06-06T16:54:20.497Z,34.31
2016-06-06T16:55:20.517Z,35.1
2016-06-06T16:56:20.582Z,35.18
2016-06-06T16:57:20.352Z,35
2016-06-06T16:58:20.386Z,34.7
2016-06-06T16:59:20.701Z,34.6
2016-06-06T17:00:20.408Z,34.7
2016-06-06T17:01:20.411Z,34.5
2016-06-06T17:02:20.429Z,34.99
2016-06-06T17:03:20.432Z,34.89
2016-06-06T17:04:20.481Z,35.57
2016-06-06T17:05:20.672Z,34.7
2016-06-06T17:06:20.486Z,34.89
2016-06-06T17:07:20.693Z,34.89
2016-06-06T17:08:20.492Z,35.28
2016-06-06T17:09:20.058Z,35.95
2016-06-06T17:10:20.561Z,34.99
2016-06-06T17:11:20.563Z,34.89
2016-06-06T17:12:20.566Z,34.5
2016-06-06T17:13:20.631Z,34.79
2016-06-06T17:14:20.602Z,34.6
2016-06-06T17:15:20.605Z,34.58
2016-06-06T17:16:20.827Z,34.89
2016-06-06T17:17:20.626Z,35.37
2016-06-06T17:18:20.832Z,34.48
2016-06-06T17:19:20.850Z,34.87
2016-06-06T17:20:21.071Z,35.16
2016-06-06T17:21:20.699Z,35.84
2016-06-06T17:22:20.687Z,35.64
2016-06-06T17:23:20.705Z,35.74
2016-06-06T17:25:20.726Z,36.32
2016-06-06T17:26:20.993Z,36.9
2016-06-06T17:27:20.793Z,36.42
2016-06-06T17:28:20.984Z,37.48
2016-06-06T17:29:20.439Z,36.61
2016-06-06T17:30:34.880Z,36.61
2016-06-06T17:31:21.007Z,36.32
2016-06-06T17:32:20.822Z,37
2016-06-06T17:33:21.045Z,37.1
2016-06-06T17:34:20.844Z,37.38
2016-06-06T17:35:21.267Z,37.48
2016-06-06T17:36:20.880Z,37.87
2016-06-06T17:37:20.883Z,37.87
2016-06-06T17:38:21.119Z,37.96
2016-06-06T17:40:20.938Z,38.06
2016-06-06T17:41:20.955Z,38.35
2016-06-06T17:42:20.912Z,38.35
2016-06-06T17:43:21.352Z,38.16
2016-06-06T17:44:21.011Z,37.46
2016-06-06T17:45:21.341Z,37.95
2016-06-06T17:46:21.205Z,38.33
2016-06-06T17:47:35.097Z,38.71
2016-06-06T17:48:20.896Z,38.43
2016-06-06T17:49:21.041Z,38.43
2016-06-06T17:50:20.902Z,38.71
2016-06-06T17:51:21.060Z,39.2
2016-06-06T17:53:21.301Z,39.11
2016-06-06T17:54:21.116Z,39.01
2016-06-06T17:55:21.118Z,39.01
2016-06-06T17:56:21.153Z,38.71
2016-06-06T17:57:21.156Z,38.71
2016-06-06T17:58:21.189Z,39.29
2016-06-06T17:59:21.207Z,39.01
2016-06-06T18:00:21.273Z,39.49
2016-06-06T18:01:21.198Z,39.2
2016-06-06T18:02:21.215Z,38.7
2016-06-06T18:03:21.062Z,38.6
2016-06-06T18:04:20.971Z,38.71
2016-06-06T18:05:21.473Z,38.51
2016-06-06T18:06:21.273Z,39.18
2016-06-06T18:07:21.511Z,39.09
2016-06-06T18:08:21.278Z,39.57
2016-06-06T18:09:21.563Z,39.09
2016-06-06T18:10:21.347Z,38.99
2016-06-06T18:11:24.349Z,39.57
2016-06-06T18:12:21.539Z,40.15
2016-06-06T18:13:21.402Z,39.86
2016-06-06T18:14:21.358Z,39.76
2016-06-06T18:15:21.563Z,39.57
2016-06-06T18:16:21.613Z,39.47
2016-06-06T18:17:21.413Z,40.53
2016-06-06T18:18:21.415Z,40.24
2016-06-06T18:19:21.433Z,40.15
2016-06-06T18:20:21.452Z,40.15
2016-06-06T18:21:21.455Z,40.34
2016-06-06T18:22:21.488Z,40.61
2016-06-06T18:23:21.679Z,41.02
2016-06-06T18:24:21.509Z,41.02
2016-06-06T18:25:21.497Z,40.99
2016-06-06T18:26:21.733Z,41.09
2016-06-06T18:27:21.532Z,41.28
2016-06-06T18:28:21.785Z,41.28
2016-06-06T18:29:22.273Z,41.28
2016-06-06T18:30:21.853Z,41.86
2016-06-06T18:31:21.779Z,41.77
2016-06-06T18:32:21.593Z,41.48
2016-06-06T18:33:21.611Z,41.86
2016-06-06T18:34:21.630Z,41.96
2016-06-06T18:35:21.836Z,42.44
2016-06-06T18:36:21.651Z,41.96
2016-06-06T18:37:21.684Z,42.35
2016-06-06T18:38:21.656Z,42.73
2016-06-06T18:39:21.675Z,42.44
2016-06-06T18:40:21.692Z,42.73
2016-06-06T18:41:21.711Z,42.9
2016-06-06T18:42:21.745Z,43.38
2016-06-06T18:43:21.919Z,43.29
2016-06-06T18:44:21.751Z,43.87
2016-06-06T18:45:21.738Z,44.06
2016-06-06T18:46:21.772Z,43.96
2016-06-06T18:47:21.774Z,43.96
2016-06-06T18:48:21.886Z,44.64
2016-06-06T18:49:21.827Z,44.73
2016-06-06T18:50:22.016Z,44.83
2016-06-06T18:51:21.629Z,44.83
2016-06-06T18:52:21.850Z,45.51
2016-06-06T18:53:21.728Z,45.51
2016-06-06T18:54:21.855Z,45.89
2016-06-06T18:55:21.936Z,45.99
2016-06-06T18:56:21.986Z,45.79
2016-06-06T18:57:22.973Z,45.68
2016-06-06T18:58:21.913Z,45.87
2016-06-06T18:59:22.651Z,45.39
2016-06-06T19:00:22.184Z,45.77
2016-06-06T19:01:21.952Z,45.68
2016-06-06T19:02:36.048Z,46.25
2016-06-06T19:03:21.989Z,46.15
2016-06-06T19:04:21.992Z,45.97
2016-06-06T19:05:21.994Z,46.15
2016-06-06T19:06:22.012Z,46.15
2016-06-06T19:07:22.609Z,46.15
2016-06-06T19:08:22.034Z,47.12
2016-06-06T19:09:22.067Z,46.93
2016-06-06T19:10:22.102Z,47.1
2016-06-06T19:11:22.073Z,47.29
2016-06-06T19:12:22.279Z,47.19
2016-06-06T19:13:22.141Z,47.29
2016-06-06T19:14:22.113Z,47.58
2016-06-06T19:15:22.099Z,47.67
2016-06-06T19:16:22.119Z,48.54
2016-06-06T19:17:22.136Z,48.25
2016-06-06T19:18:22.530Z,48.35
2016-06-06T19:19:22.172Z,48.06
2016-06-06T19:20:36.238Z,48.52
2016-06-06T19:21:22.366Z,48.61
2016-06-06T19:22:22.197Z,49
2016-06-06T19:23:22.183Z,49
2016-06-06T19:24:22.265Z,48.81
2016-06-06T19:25:22.267Z,48.71
2016-06-06T19:26:36.520Z,49.58
2016-06-06T19:27:22.273Z,49.48
2016-06-06T19:28:22.259Z,49.68
2016-06-06T19:29:22.262Z,50.06
2016-06-06T19:30:22.265Z,49.77
2016-06-06T19:31:22.284Z,49.68
2016-06-06T19:32:22.301Z,49.74
2016-06-06T19:33:22.507Z,49.84
2016-06-06T19:34:22.323Z,49.94
2016-06-06T19:35:22.340Z,50.51
2016-06-06T19:36:22.750Z,50.51
2016-06-06T19:37:22.550Z,49.84
2016-06-06T19:38:22.365Z,49.55
2016-06-06T19:39:22.398Z,50.42
2016-06-06T19:40:22.386Z,50.51
2016-06-06T19:41:22.420Z,50.51
2016-06-06T19:42:22.406Z,50.13
2016-06-06T19:43:22.441Z,50.81
2016-06-06T19:44:22.444Z,50.99
2016-06-06T19:45:22.461Z,50.71
2016-06-06T19:46:22.464Z,50.99
2016-06-06T19:47:22.467Z,51.09
2016-06-06T19:48:22.485Z,50.99
2016-06-06T19:49:23.707Z,51.76
2016-06-06T19:50:22.037Z,51.67
2016-06-06T19:51:36.618Z,51.86
2016-06-06T19:52:22.730Z,51.67
2016-06-06T19:53:22.561Z,51.86
2016-06-06T19:54:22.657Z,51.84
2016-06-06T19:55:22.551Z,51.55
2016-06-06T19:56:22.788Z,51.93
2016-06-06T19:57:22.604Z,51.74
2016-06-06T19:58:22.606Z,52.51
2016-06-06T19:59:22.593Z,52.32
2016-06-06T20:00:22.611Z,52.8
2016-06-06T20:01:22.817Z,52.8
2016-06-06T20:02:22.617Z,52.61
2016-06-06T20:03:22.634Z,52.61
2016-06-06T20:04:22.856Z,52.61
2016-06-06T20:05:23.079Z,52.7
2016-06-06T20:06:22.658Z,52.32
2016-06-06T20:07:22.677Z,52.51
2016-06-06T20:08:22.883Z,52.61
2016-06-06T20:09:22.698Z,52.8
2016-06-06T20:10:22.903Z,52.89
2016-06-06T20:11:22.750Z,52.97
2016-06-06T20:12:22.737Z,53.09
2016-06-06T20:14:22.758Z,53.57
2016-06-06T20:15:22.761Z,53.45
2016-06-06T20:16:22.794Z,53.83
2016-06-06T20:17:22.797Z,53.92
2016-06-06T20:18:22.941Z,53.92
2016-06-06T20:19:22.334Z,54.12
2016-06-06T20:20:37.711Z,54.12
2016-06-06T20:21:37.106Z,54.31
2016-06-06T20:22:22.842Z,54.41
2016-06-06T20:23:22.844Z,54.79
2016-06-06T20:24:22.863Z,55.18
2016-06-06T20:25:22.866Z,55.76
2016-06-06T20:26:22.868Z,55.46
2016-06-06T20:27:23.121Z,55.08
2016-06-06T20:28:23.296Z,55.27
2016-06-06T20:29:22.908Z,55.56
2016-06-06T20:30:22.926Z,55.46
2016-06-06T20:31:22.945Z,55.63
2016-06-06T20:32:22.932Z,55.56
2016-06-06T20:33:23.607Z,55.76
2016-06-06T20:34:23.391Z,55.82
2016-06-06T20:35:22.846Z,55.73
2016-06-06T20:36:22.973Z,55.82
2016-06-06T20:37:22.976Z,55.53
2016-06-06T20:38:23.198Z,55.82
2016-06-06T20:39:22.997Z,55.73
2016-06-06T20:40:23.015Z,55.44
2016-06-06T20:41:23.222Z,55.82
2016-06-06T20:42:23.021Z,56.01
2016-06-06T20:43:23.273Z,56.01
2016-06-06T20:44:23.042Z,56.3
2016-06-06T20:45:23.060Z,56.4
2016-06-06T20:46:23.078Z,56.4
2016-06-06T20:47:23.097Z,56.49
2016-06-06T20:48:23.116Z,56.49
2016-06-06T20:49:23.102Z,56.68
2016-06-06T20:50:24.246Z,56.78
2016-06-06T20:51:23.919Z,56.49
2016-06-06T20:52:24.063Z,56.4
2016-06-06T20:53:23.316Z,56.68
2016-06-06T20:54:37.225Z,56.88
2016-06-06T20:55:24.696Z,56.78
2016-06-06T20:56:23.183Z,56.68
2016-06-06T20:57:23.202Z,56.56
2016-06-06T20:58:23.221Z,56.95
2016-06-06T20:59:23.207Z,56.76
2016-06-06T21:00:23.429Z,56.95
2016-06-06T21:01:23.260Z,57.9
2016-06-06T21:02:23.232Z,57.71
2016-06-06T21:03:23.235Z,57.71
2016-06-06T21:04:23.236Z,57.52
2016-06-06T21:05:23.114Z,58.29
2016-06-06T21:06:23.258Z,58.2
2016-06-06T21:07:23.276Z,57.81
2016-06-06T21:08:23.294Z,58.1
2016-06-06T21:09:23.297Z,58
2016-06-06T21:10:23.315Z,59.06
2016-06-06T21:11:23.709Z,58.67
2016-06-06T21:12:23.523Z,58.77
2016-06-06T21:13:23.433Z,58.67
2016-06-06T21:14:23.545Z,58.77
2016-06-06T21:15:23.548Z,59.25
2016-06-06T21:16:23.394Z,59.25
2016-06-06T21:17:23.600Z,59.03
2016-06-06T21:18:23.383Z,58.84
2016-06-06T21:19:23.418Z,59.7
2016-06-06T21:20:24.122Z,59.22
2016-06-06T21:21:23.157Z,59.22
2016-06-06T21:22:23.425Z,59.7
2016-06-06T21:23:23.631Z,59.99
2016-06-06T21:24:23.430Z,59.7
2016-06-06T21:25:23.465Z,60.28
2016-06-06T21:26:23.468Z,60.08
2016-06-06T21:27:23.471Z,59.89
2016-06-06T21:28:23.473Z,59.8
2016-06-06T21:29:23.476Z,60.18
2016-06-06T21:30:23.494Z,60.18
2016-06-06T21:31:23.699Z,60.28
2016-06-06T21:32:23.546Z,60.18
2016-06-06T21:33:23.517Z,60.38
2016-06-06T21:34:23.364Z,60.18
2016-06-06T21:35:23.585Z,60.38
2016-06-06T21:36:23.745Z,60.28
2016-06-06T21:37:23.590Z,59.8
2016-06-06T21:38:23.578Z,60.18
2016-06-06T21:39:23.596Z,60.75
2016-06-06T21:40:23.568Z,60.18
2016-06-06T21:42:23.604Z,60.53
2016-06-06T21:43:23.997Z,60.44
2016-06-06T21:44:23.609Z,60.44
2016-06-06T21:45:23.628Z,60.63
2016-06-06T21:46:23.630Z,60.44
2016-06-06T21:47:23.852Z,60.53
2016-06-06T21:48:23.198Z,60.63
2016-06-06T21:49:23.670Z,60.53
2016-06-06T21:50:24.797Z,60.72
2016-06-06T21:51:23.675Z,60.63